Time;durP1;ratioP1;P1;durP2;ratioP2;P2;SDS_P1;SDS_P2;PMS_P1;PMS_P2;Temp;Humidity;BMP_temperature;BMP_pressure;BME280_temperature;BME280_humidity;BME280_pressure;Samples;Min_cycle;Max_cycle;Signal;HPM_P1;HPM_P2
2022/06/14 00:01:23;;;;;;;;;;;;;;;14.08;58.20;97054.78;5095248;28;19978;-73
2022/06/14 00:03:49;;;;;;;;;;;;;;;14.07;58.44;97046.09;5095304;28;20458;-72
2022/06/14 00:06:18;;;;;;;;;;;;;;;14.05;58.80;97049.94;5095730;28;20030;-70
2022/06/14 00:08:44;;;;;;;;;;;;;;;14.06;57.72;97051.56;5095530;28;20316;-73
2022/06/14 00:11:12;;;;;;;;;;;;;;;14.03;59.35;97050.19;5095416;28;20441;-71
2022/06/14 00:13:38;;;;;;;;;;;;;;;14.01;59.28;97052.25;5095269;28;19958;-72
2022/06/14 00:16:04;;;;;;;;;;;;;;;13.99;59.29;97049.84;5095061;28;19954;-71
2022/06/14 00:18:30;;;;;;;;;;;;;;;13.97;59.75;97049.25;5095437;28;19964;-71
2022/06/14 00:20:56;;;;;;;;;;;;;;;13.95;59.43;97045.25;5095354;28;20300;-72
2022/06/14 00:23:22;;;;;;;;;;;;;;;13.91;60.18;97038.81;5094906;28;19954;-72
2022/06/14 00:25:51;;;;;;;;;;;;;;;13.88;59.55;97040.06;5077129;28;19954;-72
2022/06/14 00:28:17;;;;;;;;;;;;;;;13.84;58.98;97031.00;5094829;28;19957;-72
2022/06/14 00:30:45;;;;;;;;;;;;;;;13.83;59.40;97036.47;5094148;28;19954;-72
2022/06/14 00:33:11;;;;;;;;;;;;;;;13.79;59.68;97036.13;5095054;28;20317;-72
2022/06/14 00:35:37;;;;;;;;;;;;;;;13.76;58.78;97028.66;5094986;28;19959;-71
2022/06/14 00:38:04;;;;;;;;;;;;;;;13.72;59.66;97036.22;5094614;28;20420;-71
2022/06/14 00:40:31;;;;;;;;;;;;;;;13.66;58.69;97031.81;5094742;28;19965;-71
2022/06/14 00:43:02;;;;;;;;;;;;;;;13.60;58.71;97030.06;5094620;28;19963;-72
2022/06/14 00:45:28;;;;;;;;;;;;;;;13.56;58.93;97027.06;5094366;28;19956;-71
2022/06/14 00:48:02;;;;;;;;;;;;;;;13.52;58.66;97033.03;5093132;28;19951;-72
2022/06/14 00:50:43;;;;;;;;;;;;;;;13.47;58.88;97033.69;5094503;28;20347;-71
2022/06/14 00:53:17;;;;;;;;;;;;;;;13.43;59.19;97026.44;5093849;28;19962;-72
2022/06/14 00:55:46;;;;;;;;;;;;;;;13.38;59.50;97027.91;5094790;28;20324;-71
2022/06/14 00:58:31;;;;;;;;;;;;;;;13.36;59.04;97031.81;5076393;28;19949;-70
2022/06/14 01:01:01;;;;;;;;;;;;;;;13.35;60.14;97035.44;5094201;28;19963;-72
2022/06/14 01:03:34;;;;;;;;;;;;;;;13.33;58.93;97026.97;5094272;28;19973;-71
2022/06/14 01:06:07;;;;;;;;;;;;;;;13.30;60.72;97036.13;5094532;28;19956;-71
2022/06/14 01:08:36;;;;;;;;;;;;;;;13.30;60.32;97028.22;5079096;28;19956;-71
2022/06/14 01:11:04;;;;;;;;;;;;;;;13.31;60.80;97029.00;5094319;28;19966;-71
2022/06/14 01:13:30;;;;;;;;;;;;;;;13.32;61.67;97028.00;5094009;28;19952;-71
2022/06/14 01:15:56;;;;;;;;;;;;;;;13.34;60.67;97015.41;5094268;28;19968;-71
2022/06/14 01:18:23;;;;;;;;;;;;;;;13.32;60.00;97006.94;5094091;28;19957;-70
2022/06/14 01:20:49;;;;;;;;;;;;;;;13.31;60.20;97011.41;5094156;28;19953;-71
2022/06/14 01:23:16;;;;;;;;;;;;;;;13.29;60.57;97015.25;5093870;28;20002;-73
2022/06/14 01:25:45;;;;;;;;;;;;;;;13.28;60.81;97018.91;5094272;28;19954;-73
2022/06/14 01:28:11;;;;;;;;;;;;;;;13.29;60.76;97020.53;5093968;28;19957;-72
2022/06/14 01:30:41;;;;;;;;;;;;;;;13.29;60.84;97015.25;5093472;28;19968;-73
2022/06/14 01:33:11;;;;;;;;;;;;;;;13.29;61.94;97021.34;5093840;28;19959;-73
2022/06/14 01:35:40;;;;;;;;;;;;;;;13.28;61.25;97014.44;5094127;28;19969;-73
2022/06/14 01:38:09;;;;;;;;;;;;;;;13.28;61.63;97019.69;5077772;28;19957;-72
2022/06/14 01:40:50;;;;;;;;;;;;;;;13.26;60.58;97005.94;5093571;28;19962;-73
2022/06/14 01:43:35;;;;;;;;;;;;;;;13.22;61.55;97020.59;5093720;28;19970;-73
2022/06/14 01:46:20;;;;;;;;;;;;;;;13.23;61.62;97022.22;5081653;28;20459;-73
2022/06/14 01:51:50;;;;;;;;;;;;;;;13.24;61.57;97018.53;5082749;28;19958;-72
2022/06/14 01:51:51;;;;;;;;;;;;;;;13.27;61.48;97031.28;5086753;28;19955;-73
2022/06/14 01:54:24;;;;;;;;;;;;;;;13.27;61.37;97026.00;5093925;28;19955;-73
2022/06/14 01:57:09;;;;;;;;;;;;;;;13.29;61.13;97023.16;5092626;28;20295;-73
2022/06/14 01:59:35;;;;;;;;;;;;;;;13.28;61.45;97024.97;5093569;28;19962;-73
2022/06/14 02:02:00;;;;;;;;;;;;;;;13.29;61.48;97028.44;5093211;28;20350;-73
2022/06/14 02:04:41;;;;;;;;;;;;;;;13.25;61.76;97024.59;5094088;28;20319;-73
2022/06/14 02:07:26;;;;;;;;;;;;;;;13.22;61.81;97031.13;5093671;28;19980;-72
2022/06/14 02:10:01;;;;;;;;;;;;;;;13.19;61.30;97015.75;5093473;28;20399;-72
2022/06/14 02:12:35;;;;;;;;;;;;;;;13.18;61.47;97017.56;5093524;28;20335;-72
2022/06/14 02:15:22;;;;;;;;;;;;;;;13.14;61.66;97018.25;5093657;28;19978;-72
2022/06/14 02:18:05;;;;;;;;;;;;;;;13.10;61.70;97014.44;5061834;28;20438;-72
2022/06/14 02:20:35;;;;;;;;;;;;;;;13.07;61.91;97014.88;5084060;28;19951;-73
2022/06/14 02:23:03;;;;;;;;;;;;;;;13.05;62.04;97019.56;5093453;28;19987;-72
2022/06/14 02:25:33;;;;;;;;;;;;;;;13.00;61.88;97018.38;5092684;28;20329;-72
2022/06/14 02:28:06;;;;;;;;;;;;;;;12.97;62.12;97012.75;5093938;28;20432;-72
2022/06/14 02:30:37;;;;;;;;;;;;;;;12.93;62.84;97012.38;5092971;28;19958;-72
2022/06/14 02:33:09;;;;;;;;;;;;;;;12.91;62.59;97009.16;5093240;28;19966;-72
2022/06/14 02:35:45;;;;;;;;;;;;;;;12.89;62.70;97015.66;5093281;28;20061;-72
2022/06/14 02:38:19;;;;;;;;;;;;;;;12.85;62.81;97014.50;5075780;28;19967;-71
2022/06/14 02:41:00;;;;;;;;;;;;;;;12.82;63.09;97010.47;5093377;28;19967;-72
2022/06/14 02:43:47;;;;;;;;;;;;;;;12.78;63.48;97006.66;5093002;28;19984;-72
2022/06/14 02:46:20;;;;;;;;;;;;;;;12.72;63.27;97003.06;5092995;28;19958;-71
2022/06/14 02:48:46;;;;;;;;;;;;;;;12.68;63.54;97001.91;5093092;28;19953;-71
2022/06/14 02:51:35;;;;;;;;;;;;;;;12.65;63.37;97004.19;5093253;28;19956;-71
2022/06/14 02:54:14;;;;;;;;;;;;;;;12.59;63.72;97003.19;5083151;28;19952;-72
2022/06/14 02:56:47;;;;;;;;;;;;;;;12.54;63.61;97001.22;5077696;28;19950;-71
2022/06/14 02:59:28;;;;;;;;;;;;;;;12.50;63.89;97004.50;5093027;28;19964;-71
2022/06/14 03:01:58;;;;;;;;;;;;;;;12.48;63.86;97006.56;5092851;28;19975;-71
2022/06/14 03:04:28;;;;;;;;;;;;;;;12.44;63.87;97008.00;5092386;28;19959;-71
2022/06/14 03:06:58;;;;;;;;;;;;;;;12.42;64.55;97002.16;5093485;28;19960;-72
2022/06/14 03:09:26;;;;;;;;;;;;;;;12.37;64.25;97000.19;5096759;28;19958;-71
2022/06/14 03:11:55;;;;;;;;;;;;;;;12.36;64.30;96998.56;5096404;28;19958;-71
2022/06/14 03:14:27;;;;;;;;;;;;;;;12.35;64.99;97004.84;5096717;28;19961;-71
2022/06/14 03:17:01;;;;;;;;;;;;;;;12.34;64.64;97006.66;5096365;28;19957;-72
2022/06/14 03:19:35;;;;;;;;;;;;;;;12.34;64.61;97005.84;5094954;28;19957;-70
2022/06/14 03:22:10;;;;;;;;;;;;;;;12.35;64.39;97002.22;5096373;28;19968;-70
2022/06/14 03:24:53;;;;;;;;;;;;;;;12.34;64.91;96997.97;5096317;28;20335;-70
2022/06/14 03:27:42;;;;;;;;;;;;;;;12.36;64.52;96999.34;5086136;28;19959;-71
2022/06/14 03:30:08;;;;;;;;;;;;;;;12.37;64.23;96993.09;5095912;28;19974;-70
2022/06/14 03:32:43;;;;;;;;;;;;;;;12.38;64.69;96999.94;5096612;28;19992;-70
2022/06/14 03:35:13;;;;;;;;;;;;;;;12.41;64.64;97001.34;5096293;28;19983;-70
2022/06/14 03:37:39;;;;;;;;;;;;;;;12.44;64.38;96997.47;5096046;28;19952;-70
2022/06/14 03:40:08;;;;;;;;;;;;;;;12.45;64.22;96999.91;5096024;28;20431;-70
2022/06/14 03:42:34;;;;;;;;;;;;;;;12.46;64.11;96998.88;5095676;28;20290;-70
2022/06/14 03:45:02;;;;;;;;;;;;;;;12.49;63.78;97000.25;5095996;28;19960;-70
2022/06/14 03:47:29;;;;;;;;;;;;;;;12.48;64.09;96999.47;5095820;28;19958;-70
2022/06/14 03:50:01;;;;;;;;;;;;;;;12.49;64.68;97016.84;5095880;28;20323;-70
2022/06/14 03:52:45;;;;;;;;;;;;;;;12.47;64.69;97013.63;5095463;28;19960;-70
2022/06/14 03:55:47;;;;;;;;;;;;;;;12.45;64.42;97010.44;5095730;28;19956;-70
2022/06/14 03:58:31;;;;;;;;;;;;;;;12.44;64.20;97016.69;5005124;28;19968;-70
2022/06/14 04:00:57;;;;;;;;;;;;;;;12.40;65.03;97018.16;5087518;28;19973;-70
2022/06/14 04:03:32;;;;;;;;;;;;;;;12.37;65.11;97019.38;5094361;28;20005;-72
2022/06/14 04:06:17;;;;;;;;;;;;;;;12.35;65.33;97018.78;5095606;28;19964;-71
2022/06/14 04:08:45;;;;;;;;;;;;;;;12.32;65.00;97021.84;5095530;28;19952;-71
2022/06/14 04:11:11;;;;;;;;;;;;;;;12.33;65.71;97018.19;5095299;28;19961;-71
2022/06/14 04:13:56;;;;;;;;;;;;;;;12.34;65.61;97008.47;5095246;28;19951;-71
2022/06/14 04:16:31;;;;;;;;;;;;;;;12.40;65.93;97018.16;5085488;28;19954;-72
2022/06/14 04:19:15;;;;;;;;;;;;;;;12.47;65.39;97008.34;5094322;28;19954;-71
2022/06/14 04:21:51;;;;;;;;;;;;;;;12.53;65.25;97007.50;5086208;28;19955;-73
2022/06/14 04:24:25;;;;;;;;;;;;;;;12.61;65.09;97013.53;5095042;28;19966;-72
2022/06/14 04:27:10;;;;;;;;;;;;;;;12.68;65.24;97012.44;5095134;28;20438;-72
2022/06/14 04:29:38;;;;;;;;;;;;;;;12.76;65.17;97008.72;5095019;28;19959;-72
2022/06/14 04:32:11;;;;;;;;;;;;;;;12.84;65.79;97010.25;5094587;28;19980;-72
2022/06/14 04:34:43;;;;;;;;;;;;;;;12.84;64.25;96991.84;5095080;28;19973;-72
2022/06/14 04:37:11;;;;;;;;;;;;;;;12.72;64.97;97010.16;5094859;28;19954;-72
2022/06/14 04:39:48;;;;;;;;;;;;;;;12.77;65.45;97019.03;5094227;28;20349;-72
2022/06/14 04:42:23;;;;;;;;;;;;;;;12.87;65.05;97017.72;5095059;28;19987;-71
2022/06/14 04:44:52;;;;;;;;;;;;;;;13.00;64.89;97007.84;5094576;28;19980;-71
2022/06/14 04:47:23;;;;;;;;;;;;;;;13.17;64.68;97010.72;5094530;28;19966;-72
2022/06/14 04:50:21;;;;;;;;;;;;;;;13.32;64.19;97006.94;5095031;28;20331;-71
2022/06/14 04:52:50;;;;;;;;;;;;;;;13.47;63.74;96996.81;5024806;28;19958;-72
2022/06/14 04:55:20;;;;;;;;;;;;;;;13.62;64.29;96999.03;5094492;28;19958;-72
2022/06/14 04:57:48;;;;;;;;;;;;;;;13.78;63.32;96982.59;5094743;28;19973;-72
2022/06/14 05:00:16;;;;;;;;;;;;;;;13.95;63.28;96988.03;5094769;28;19953;-72
2022/06/14 05:02:48;;;;;;;;;;;;;;;14.13;63.10;96979.25;5094338;28;19976;-72
2022/06/14 05:05:17;;;;;;;;;;;;;;;14.37;62.67;96989.81;5094184;28;19962;-72
2022/06/14 05:07:45;;;;;;;;;;;;;;;14.58;62.29;96970.81;5093508;28;19977;-72
2022/06/14 05:10:16;;;;;;;;;;;;;;;14.82;61.62;96976.06;5094852;28;19955;-72
2022/06/14 05:12:42;;;;;;;;;;;;;;;15.08;61.41;96968.69;5094114;28;19967;-72
2022/06/14 05:15:18;;;;;;;;;;;;;;;15.31;60.90;96958.03;5094471;28;19959;-72
2022/06/14 05:18:02;;;;;;;;;;;;;;;15.58;59.84;96949.53;5094170;28;19951;-72
2022/06/14 05:20:33;;;;;;;;;;;;;;;15.88;59.10;96935.28;5094096;28;19956;-72
2022/06/14 05:23:03;;;;;;;;;;;;;;;16.14;58.54;96924.03;5094558;28;19977;-72
2022/06/14 05:25:36;;;;;;;;;;;;;;;16.40;57.66;96913.84;5093927;28;19961;-72
2022/06/14 05:28:07;;;;;;;;;;;;;;;16.68;57.24;96926.13;5094107;28;19982;-72
2022/06/14 05:30:52;;;;;;;;;;;;;;;16.95;56.52;96906.91;5075731;28;19964;-73
2022/06/14 05:33:18;;;;;;;;;;;;;;;17.21;55.59;96900.81;5086407;28;19970;-72
2022/06/14 05:36:06;;;;;;;;;;;;;;;17.47;55.42;96905.59;5093981;28;19985;-72
2022/06/14 05:38:49;;;;;;;;;;;;;;;17.73;54.37;96891.53;5093822;28;20399;-72
2022/06/14 05:41:15;;;;;;;;;;;;;;;18.01;53.32;96879.03;5094071;28;20446;-72
2022/06/14 05:43:44;;;;;;;;;;;;;;;18.25;52.33;96876.81;5093855;28;19969;-72
2022/06/14 05:46:20;;;;;;;;;;;;;;;18.49;52.30;96887.03;5093962;28;19962;-71
2022/06/14 05:48:50;;;;;;;;;;;;;;;18.72;51.87;96886.59;5079509;28;19964;-72
2022/06/14 05:51:18;;;;;;;;;;;;;;;19.04;51.92;96888.34;5092340;28;19962;-72
2022/06/14 05:53:48;;;;;;;;;;;;;;;19.38;50.65;96885.25;5093686;28;19963;-72
2022/06/14 05:56:14;;;;;;;;;;;;;;;19.71;50.23;96893.84;5093965;28;19958;-71
2022/06/14 05:58:45;;;;;;;;;;;;;;;19.99;50.13;96909.28;5093657;28;20000;-72
2022/06/14 06:01:14;;;;;;;;;;;;;;;20.18;48.98;96901.56;5093615;28;19953;-72
2022/06/14 06:03:52;;;;;;;;;;;;;;;20.28;48.44;96909.53;5093414;28;19972;-72
2022/06/14 06:06:25;;;;;;;;;;;;;;;20.38;47.26;96894.59;5093664;28;20421;-72
2022/06/14 06:08:54;;;;;;;;;;;;;;;20.47;48.19;96925.75;5093639;28;19957;-72
2022/06/14 06:11:20;;;;;;;;;;;;;;;20.46;48.76;96923.34;5085275;28;19956;-72
2022/06/14 06:13:52;;;;;;;;;;;;;;;20.52;50.01;96938.25;5093441;28;20047;-72
2022/06/14 06:16:22;;;;;;;;;;;;;;;20.60;48.82;96928.91;5093354;28;19952;-72
2022/06/14 06:19:10;;;;;;;;;;;;;;;20.55;48.71;96929.72;5093532;28;20326;-72
2022/06/14 06:21:44;;;;;;;;;;;;;;;20.62;48.65;96930.28;5093428;28;19954;-72
2022/06/14 06:24:15;;;;;;;;;;;;;;;20.82;48.68;96931.28;5082768;28;19978;-72
2022/06/14 06:26:48;;;;;;;;;;;;;;;21.02;48.34;96927.72;5092235;28;20310;-72
2022/06/14 06:29:23;;;;;;;;;;;;;;;21.17;47.37;96919.69;5093468;28;20396;-72
2022/06/14 06:31:49;;;;;;;;;;;;;;;21.12;47.71;96929.56;5092880;28;19974;-72
2022/06/14 06:34:17;;;;;;;;;;;;;;;21.03;46.12;96924.00;5093375;28;19974;-72
2022/06/14 06:37:06;;;;;;;;;;;;;;;20.79;46.21;96921.13;5093224;28;20317;-72
2022/06/14 06:39:38;;;;;;;;;;;;;;;20.73;47.88;96941.69;5081437;28;20609;-72
2022/06/14 06:42:19;;;;;;;;;;;;;;;20.94;47.22;96938.97;5093736;28;19970;-72
2022/06/14 06:44:53;;;;;;;;;;;;;;;21.05;45.54;96937.84;5097427;28;20442;-72
2022/06/14 06:47:26;;;;;;;;;;;;;;;21.21;46.59;96931.41;5096307;28;19960;-72
2022/06/14 06:49:58;;;;;;;;;;;;;;;21.42;45.43;96921.44;5097287;28;19958;-72
2022/06/14 06:52:44;;;;;;;;;;;;;;;21.65;45.94;96919.19;5096782;28;19953;-72
2022/06/14 06:55:13;;;;;;;;;;;;;;;21.87;44.74;96919.53;5096389;28;19958;-73
2022/06/14 06:57:42;;;;;;;;;;;;;;;21.99;43.89;96921.06;5086317;28;19963;-72
2022/06/14 07:00:11;;;;;;;;;;;;;;;21.82;44.42;96919.56;5096739;28;19971;-72
2022/06/14 07:02:58;;;;;;;;;;;;;;;21.58;45.66;96932.00;5095733;28;19972;-72
2022/06/14 07:05:24;;;;;;;;;;;;;;;21.54;45.00;96921.09;5096950;28;19969;-72
2022/06/14 07:07:58;;;;;;;;;;;;;;;21.61;45.13;96926.94;5096540;28;20326;-72
2022/06/14 07:10:27;;;;;;;;;;;;;;;21.83;44.64;96920.38;5087005;28;20369;-72
2022/06/14 07:13:02;;;;;;;;;;;;;;;21.98;43.68;96914.09;5096359;28;19967;-72
2022/06/14 07:15:37;;;;;;;;;;;;;;;21.84;44.06;96924.66;5096353;28;19957;-72
2022/06/14 07:18:03;;;;;;;;;;;;;;;21.89;43.71;96922.72;5096447;28;19960;-72
2022/06/14 07:20:35;;;;;;;;;;;;;;;22.07;42.64;96918.56;5096374;28;19959;-72
2022/06/14 07:23:06;;;;;;;;;;;;;;;22.25;44.18;96932.34;5096095;28;19983;-72
2022/06/14 07:25:35;;;;;;;;;;;;;;;22.44;43.69;96927.09;5096688;28;19970;-72
2022/06/14 07:28:13;;;;;;;;;;;;;;;22.56;44.01;96924.81;5096273;28;19945;-72
2022/06/14 07:31:05;;;;;;;;;;;;;;;22.39;42.82;96921.81;5091369;28;20002;-72
2022/06/14 07:33:54;;;;;;;;;;;;;;;22.25;45.03;96935.81;5057161;28;19959;-72
2022/06/14 07:36:25;;;;;;;;;;;;;;;22.37;43.96;96930.09;5095174;28;20415;-72
2022/06/14 07:39:04;;;;;;;;;;;;;;;22.37;42.82;96923.97;5096411;28;19951;-72
2022/06/14 07:41:38;;;;;;;;;;;;;;;22.30;43.73;96924.28;5095969;28;19957;-72
2022/06/14 07:44:12;;;;;;;;;;;;;;;22.45;44.64;96934.03;5095958;28;19975;-72
2022/06/14 07:46:48;;;;;;;;;;;;;;;22.62;42.75;96921.03;5096048;28;19950;-72
2022/06/14 07:49:17;;;;;;;;;;;;;;;22.69;42.66;96924.13;5094877;28;19953;-72
2022/06/14 07:51:50;;;;;;;;;;;;;;;22.71;44.40;96923.88;5095896;28;19956;-72
2022/06/14 07:54:28;;;;;;;;;;;;;;;22.55;42.60;96925.09;5084853;28;19961;-72
2022/06/14 07:57:02;;;;;;;;;;;;;;;22.37;41.63;96921.28;5068221;28;19951;-72
2022/06/14 07:59:33;;;;;;;;;;;;;;;22.18;42.61;96927.28;5095739;28;19956;-72
2022/06/14 08:02:06;;;;;;;;;;;;;;;22.26;42.26;96917.91;5094643;28;19962;-72
2022/06/14 08:04:40;;;;;;;;;;;;;;;22.19;41.41;96914.72;5095630;28;19966;-72
2022/06/14 08:07:09;;;;;;;;;;;;;;;22.13;42.84;96921.97;5095803;28;19960;-72
2022/06/14 08:09:47;;;;;;;;;;;;;;;22.07;43.53;96925.81;5095255;28;19980;-72
2022/06/14 08:12:20;;;;;;;;;;;;;;;22.04;42.46;96915.66;5095398;28;19961;-72
2022/06/14 08:15:06;;;;;;;;;;;;;;;22.03;40.97;96909.53;5095448;28;19955;-72
2022/06/14 08:17:54;;;;;;;;;;;;;;;22.20;42.45;96917.13;5095464;28;20329;-72
2022/06/14 08:20:30;;;;;;;;;;;;;;;22.29;43.59;96922.69;5095338;28;19955;-72
2022/06/14 08:22:58;;;;;;;;;;;;;;;22.50;43.30;96915.28;5095173;28;19973;-72
2022/06/14 08:25:37;;;;;;;;;;;;;;;22.57;42.28;96912.25;5094945;28;19953;-72
2022/06/14 08:28:21;;;;;;;;;;;;;;;22.69;42.09;96912.66;5094917;28;19961;-72
2022/06/14 08:30:51;;;;;;;;;;;;;;;22.75;41.47;96908.06;5095122;28;21730;-72
2022/06/14 08:33:23;;;;;;;;;;;;;;;22.63;41.51;96897.75;5094800;28;19965;-72
2022/06/14 08:35:49;;;;;;;;;;;;;;;22.69;42.46;96902.75;5094737;28;19955;-72
2022/06/14 08:38:25;;;;;;;;;;;;;;;22.88;42.14;96904.69;5094934;28;20045;-72
2022/06/14 08:41:02;;;;;;;;;;;;;;;23.03;40.99;96893.81;5094644;28;19959;-72
2022/06/14 08:43:49;;;;;;;;;;;;;;;23.21;41.51;96894.16;5094862;28;19981;-72
2022/06/14 08:46:33;;;;;;;;;;;;;;;23.09;39.71;96890.00;5076111;28;19962;-72
2022/06/14 08:49:28;;;;;;;;;;;;;;;22.86;40.30;96894.25;5095142;28;19959;-72
2022/06/14 08:51:57;;;;;;;;;;;;;;;22.79;40.94;96898.38;4998306;28;19997;-72
2022/06/14 08:54:49;;;;;;;;;;;;;;;22.85;41.18;96908.75;5094509;28;19960;-72
2022/06/14 08:57:34;;;;;;;;;;;;;;;23.11;40.97;96895.06;5094457;28;19955;-72
2022/06/14 09:00:11;;;;;;;;;;;;;;;23.34;39.77;96887.28;5094490;28;20324;-72
2022/06/14 09:02:37;;;;;;;;;;;;;;;23.52;39.50;96881.13;5080895;28;19972;-71
2022/06/14 09:05:18;;;;;;;;;;;;;;;23.62;38.07;96880.16;5093782;28;20060;-72
2022/06/14 09:07:53;;;;;;;;;;;;;;;23.75;39.46;96889.34;5094241;28;19964;-72
2022/06/14 09:10:35;;;;;;;;;;;;;;;23.79;37.83;96879.66;5094315;28;19960;-72
2022/06/14 09:13:01;;;;;;;;;;;;;;;23.63;38.32;96879.09;5082490;28;19959;-72
2022/06/14 09:15:33;;;;;;;;;;;;;;;23.45;39.10;96884.16;5093995;28;19958;-72
2022/06/14 09:18:18;;;;;;;;;;;;;;;23.33;38.04;96877.66;5094250;28;20862;-72
2022/06/14 09:20:44;;;;;;;;;;;;;;;23.38;37.14;96866.88;5094500;28;20441;-72
2022/06/14 09:23:19;;;;;;;;;;;;;;;23.49;38.69;96873.66;5094074;28;19966;-73
2022/06/14 09:26:05;;;;;;;;;;;;;;;23.48;38.10;96869.41;5078758;28;19975;-72
2022/06/14 09:28:45;;;;;;;;;;;;;;;23.43;36.45;96856.88;5093812;28;19950;-72
2022/06/14 09:31:34;;;;;;;;;;;;;;;23.48;37.59;96878.22;5094258;28;19984;-72
2022/06/14 09:34:03;;;;;;;;;;;;;;;23.46;36.90;96866.22;5080942;28;19968;-72
2022/06/14 09:36:40;;;;;;;;;;;;;;;23.53;37.71;96868.53;5093674;28;19960;-72
2022/06/14 09:39:17;;;;;;;;;;;;;;;23.78;36.64;96867.38;5094603;28;19961;-72
2022/06/14 09:41:42;;;;;;;;;;;;;;;23.96;37.00;96853.16;5093849;28;19957;-72
2022/06/14 09:44:14;;;;;;;;;;;;;;;24.11;36.16;96849.41;5093954;28;20426;-72
2022/06/14 09:46:59;;;;;;;;;;;;;;;24.18;37.14;96849.00;5093293;28;20331;-72
2022/06/14 09:49:35;;;;;;;;;;;;;;;24.17;37.25;96847.41;5061947;28;20329;-72
2022/06/14 09:52:03;;;;;;;;;;;;;;;24.31;37.33;96848.22;5093409;28;19965;-72
2022/06/14 09:54:32;;;;;;;;;;;;;;;24.52;36.73;96852.13;5093677;28;19955;-72
2022/06/14 09:57:04;;;;;;;;;;;;;;;24.38;36.03;96847.81;5093479;28;19959;-72
2022/06/14 09:59:36;;;;;;;;;;;;;;;24.37;37.10;96852.41;5093878;28;19964;-72
2022/06/14 10:02:02;;;;;;;;;;;;;;;24.26;35.92;96840.28;5075563;28;19967;-72
2022/06/14 10:04:31;;;;;;;;;;;;;;;24.16;35.08;96837.78;5093752;28;19978;-72
2022/06/14 10:07:16;;;;;;;;;;;;;;;24.10;35.66;96843.22;5093593;28;19951;-72
2022/06/14 10:09:41;;;;;;;;;;;;;;;24.22;37.41;96840.09;5093467;28;20428;-72
2022/06/14 10:12:29;;;;;;;;;;;;;;;24.42;36.16;96840.78;5092659;28;19960;-72
2022/06/14 10:15:01;;;;;;;;;;;;;;;24.57;34.93;96823.63;5093515;28;20408;-72
2022/06/14 10:17:27;;;;;;;;;;;;;;;24.76;35.75;96831.56;5095111;28;19950;-72
2022/06/14 10:20:02;;;;;;;;;;;;;;;24.98;36.19;96838.91;5097583;28;20141;-72
2022/06/14 10:22:40;;;;;;;;;;;;;;;25.21;33.96;96819.06;5087422;28;19958;-72
2022/06/14 10:25:10;;;;;;;;;;;;;;;25.32;36.31;96830.38;5097296;28;19972;-72
2022/06/14 10:30:32;;;;;;;;;;;;;;;25.09;34.68;96826.84;5097310;28;19960;-72
2022/06/14 10:32:58;;;;;;;;;;;;;;;24.89;34.01;96822.72;5076988;28;20329;-72
2022/06/14 10:35:37;;;;;;;;;;;;;;;24.97;33.58;96811.28;5076870;28;19954;-72
2022/06/14 10:38:21;;;;;;;;;;;;;;;25.09;35.84;96824.97;5076918;28;19959;-72
2022/06/14 10:40:53;;;;;;;;;;;;;;;25.24;35.15;96815.81;5076657;28;19957;-72
2022/06/14 10:43:31;;;;;;;;;;;;;;;25.17;34.29;96810.00;5077243;28;19955;-72
2022/06/14 10:46:01;;;;;;;;;;;;;;;25.17;34.74;96814.59;5076749;28;19967;-72
2022/06/14 10:48:27;;;;;;;;;;;;;;;25.07;33.93;96812.91;5076855;28;19958;-72
2022/06/14 10:50:59;;;;;;;;;;;;;;;25.08;35.13;96820.69;5076781;28;20013;-72
2022/06/14 10:53:27;;;;;;;;;;;;;;;25.18;35.45;96814.28;5076398;28;19980;-72
2022/06/14 10:56:02;;;;;;;;;;;;;;;25.33;34.88;96818.56;5076713;28;19977;-72
2022/06/14 10:58:34;;;;;;;;;;;;;;;25.52;32.43;96804.94;5076778;28;19962;-72
2022/06/14 11:01:19;;;;;;;;;;;;;;;25.64;34.26;96810.56;5062520;28;19964;-72
2022/06/14 11:03:45;;;;;;;;;;;;;;;25.86;33.82;96803.56;5076397;28;19975;-72
2022/06/14 11:06:26;;;;;;;;;;;;;;;25.70;32.78;96809.34;5076597;28;19958;-72
2022/06/14 11:09:02;;;;;;;;;;;;;;;25.63;33.33;96806.28;5076579;28;19961;-72
2022/06/14 11:11:43;;;;;;;;;;;;;;;25.38;32.94;96801.53;5076684;28;19970;-72
2022/06/14 11:14:28;;;;;;;;;;;;;;;25.53;34.22;96803.84;5076155;28;20399;-72
2022/06/14 11:17:21;;;;;;;;;;;;;;;25.72;34.95;96800.94;5062093;28;20442;-72
2022/06/14 11:20:11;;;;;;;;;;;;;;;25.55;30.17;96793.56;5064644;28;19957;-72
2022/06/14 11:22:42;;;;;;;;;;;;;;;25.55;34.16;96803.53;5076357;28;19957;-72
2022/06/14 11:25:14;;;;;;;;;;;;;;;25.78;33.17;96801.63;5076418;28;19975;-72
2022/06/14 11:27:39;;;;;;;;;;;;;;;25.98;33.03;96801.13;5075605;28;20301;-72
2022/06/14 11:30:11;;;;;;;;;;;;;;;26.05;33.08;96795.31;5076066;28;19961;-72
2022/06/14 11:32:42;;;;;;;;;;;;;;;26.20;33.04;96789.53;5094060;28;20197;-72
2022/06/14 11:35:33;;;;;;;;;;;;;;;26.42;32.31;96777.13;5095027;28;19967;-72
2022/06/14 11:38:18;;;;;;;;;;;;;;;26.63;32.34;96777.34;5096131;28;20465;-72
2022/06/14 11:40:46;;;;;;;;;;;;;;;26.40;30.14;96772.03;5095933;28;19962;-72
2022/06/14 11:43:39;;;;;;;;;;;;;;;26.26;33.00;96782.91;5096114;28;19963;-72
2022/06/14 11:46:31;;;;;;;;;;;;;;;26.16;31.38;96774.31;5075107;28;19955;-72
2022/06/14 11:49:01;;;;;;;;;;;;;;;26.13;30.99;96765.00;5082974;28;19956;-72
2022/06/14 11:51:36;;;;;;;;;;;;;;;26.02;31.18;96777.13;5095827;28;20336;-72
2022/06/14 11:54:09;;;;;;;;;;;;;;;26.06;32.38;96772.69;5081321;28;19961;-72
2022/06/14 11:56:38;;;;;;;;;;;;;;;26.31;30.06;96768.50;5096019;28;19954;-73
2022/06/14 11:59:27;;;;;;;;;;;;;;;26.10;29.32;96766.41;5094897;28;19951;-72
2022/06/14 12:01:55;;;;;;;;;;;;;;;25.99;30.38;96770.47;5095696;28;19957;-73
2022/06/14 12:04:30;;;;;;;;;;;;;;;25.72;30.45;96768.72;5095335;28;19982;-72
2022/06/14 12:07:07;;;;;;;;;;;;;;;25.61;30.65;96772.78;5095471;28;19961;-73
2022/06/14 12:10:01;;;;;;;;;;;;;;;25.64;32.38;96769.44;5095863;28;19947;-72
2022/06/14 12:12:50;;;;;;;;;;;;;;;26.02;31.11;96756.41;5095384;28;19981;-72
2022/06/14 12:15:26;;;;;;;;;;;;;;;26.48;33.05;96765.91;5094949;28;19963;-72
2022/06/14 12:17:55;;;;;;;;;;;;;;;26.88;29.74;96749.69;5095961;28;19964;-72
2022/06/14 12:20:23;;;;;;;;;;;;;;;26.90;28.13;96749.38;5095241;28;20442;-72
2022/06/14 12:22:56;;;;;;;;;;;;;;;26.84;30.38;96756.00;5095335;28;19962;-72
2022/06/14 12:28:22;;;;;;;;;;;;;;;27.00;30.66;96753.63;5094237;28;19953;-72
2022/06/14 12:30:49;;;;;;;;;;;;;;;26.99;28.15;96746.69;5095243;28;20431;-72
2022/06/14 12:33:28;;;;;;;;;;;;;;;26.82;29.48;96759.00;5094823;28;20336;-72
2022/06/14 12:36:03;;;;;;;;;;;;;;;26.72;29.84;96765.47;5093170;28;19964;-72
2022/06/14 12:38:33;;;;;;;;;;;;;;;26.78;29.97;96765.34;5095529;28;19966;-71
2022/06/14 12:40:59;;;;;;;;;;;;;;;26.66;29.23;96752.50;5075994;28;19956;-72
2022/06/14 12:43:40;;;;;;;;;;;;;;;26.76;31.02;96757.59;5094914;28;19955;-72
2022/06/14 12:46:10;;;;;;;;;;;;;;;27.03;30.13;96737.66;5083044;28;19970;-72
2022/06/14 12:48:53;;;;;;;;;;;;;;;27.24;29.86;96737.03;5079712;28;20339;-72
2022/06/14 12:51:28;;;;;;;;;;;;;;;27.36;29.84;96725.59;5094814;28;19953;-72
2022/06/14 12:54:12;;;;;;;;;;;;;;;27.19;28.46;96721.00;5076591;28;19965;-72
2022/06/14 12:57:12;;;;;;;;;;;;;;;27.01;28.44;96718.31;5086417;28;19947;-72
2022/06/14 12:59:49;;;;;;;;;;;;;;;26.97;29.55;96712.00;5094470;28;19956;-72
2022/06/14 13:02:15;;;;;;;;;;;;;;;26.90;29.23;96707.09;5094574;28;19976;-72
2022/06/14 13:05:11;;;;;;;;;;;;;;;27.04;29.64;96712.28;5094211;28;20443;-72
2022/06/14 13:07:47;;;;;;;;;;;;;;;27.17;28.61;96707.84;5082282;28;19963;-72
2022/06/14 13:10:31;;;;;;;;;;;;;;;27.06;28.16;96701.22;5093612;28;19961;-72
2022/06/14 13:13:16;;;;;;;;;;;;;;;26.94;28.82;96704.53;5094305;28;19953;-72
2022/06/14 13:15:57;;;;;;;;;;;;;;;27.00;30.04;96705.97;5082586;28;19950;-72
2022/06/14 13:18:29;;;;;;;;;;;;;;;26.93;27.40;96690.28;5094131;28;19961;-72
2022/06/14 13:20:58;;;;;;;;;;;;;;;26.80;27.94;96693.94;5094099;28;19964;-72
2022/06/14 13:23:36;;;;;;;;;;;;;;;26.77;29.98;96694.56;5093291;28;19954;-72
2022/06/14 13:26:21;;;;;;;;;;;;;;;26.84;28.82;96694.13;5094268;28;20448;-72
2022/06/14 13:28:50;;;;;;;;;;;;;;;26.78;26.91;96688.09;5075819;28;20294;-72
2022/06/14 13:31:39;;;;;;;;;;;;;;;26.70;27.77;96686.97;5094015;28;20003;-72